createdAt,value
2023-01-04T00:00:46.743Z,6.75
2023-01-04T00:01:49.385Z,6.47
2023-01-04T00:02:52.082Z,6.88
2023-01-04T00:03:54.894Z,6.90
2023-01-04T00:04:57.532Z,7.55
2023-01-04T00:06:04.237Z,6.65
2023-01-04T00:07:06.794Z,7.07
2023-01-04T00:08:09.362Z,6.53
2023-01-04T00:09:11.905Z,6.75
2023-01-04T00:10:14.467Z,6.63
2023-01-04T00:11:20.715Z,5.45
2023-01-04T00:12:23.932Z,6.45
2023-01-04T00:13:26.463Z,6.45
2023-01-04T00:14:29.030Z,6.43
2023-01-04T00:15:31.704Z,6.13
2023-01-04T00:16:34.408Z,6.53
2023-01-04T00:17:37.019Z,6.30
2023-01-04T00:18:39.819Z,6.85
2023-01-04T00:19:42.365Z,6.20
2023-01-04T00:20:44.957Z,5.95
2023-01-04T00:21:47.526Z,6.43
2023-01-04T00:22:50.045Z,6.00
2023-01-04T00:23:57.797Z,6.50
2023-01-04T00:25:00.339Z,6.63
2023-01-04T00:26:07.065Z,6.00
2023-01-04T00:27:09.991Z,6.32
2023-01-04T00:28:12.551Z,6.75
2023-01-04T00:29:15.173Z,7.05
2023-01-04T00:30:18.336Z,7.00
2023-01-04T00:31:22.247Z,6.93
2023-01-04T00:32:25.086Z,6.97
2023-01-04T00:33:27.593Z,8.52
2023-01-04T00:34:30.501Z,7.32
2023-01-04T00:35:45.819Z,7.88
2023-01-04T00:36:49.324Z,6.50
2023-01-04T00:37:52.378Z,6.97
2023-01-04T00:39:08.670Z,7.47
2023-01-04T00:40:12.419Z,7.85
2023-01-04T00:41:42.037Z,6.65
2023-01-04T00:42:37.723Z,6.63
2023-01-04T00:43:40.702Z,6.95
2023-01-04T00:44:43.451Z,7.22
2023-01-04T00:45:46.002Z,6.22
2023-01-04T00:46:48.847Z,6.72
2023-01-04T00:47:51.657Z,6.28
2023-01-04T00:49:00.120Z,7.20
2023-01-04T00:50:03.920Z,7.40
2023-01-04T00:51:06.622Z,7.55
2023-01-04T00:52:09.923Z,6.57
2023-01-04T00:53:14.216Z,8.27
2023-01-04T00:54:17.767Z,7.60
2023-01-04T00:55:20.336Z,7.80
2023-01-04T00:56:22.957Z,7.18
2023-01-04T00:57:25.509Z,7.20
2023-01-04T00:58:28.099Z,7.22
2023-01-04T00:59:30.864Z,6.88
2023-01-04T01:00:34.315Z,6.93
2023-01-04T01:01:36.986Z,7.18
2023-01-04T01:02:39.826Z,7.38
2023-01-04T01:03:44.588Z,7.45
2023-01-04T01:04:47.287Z,6.90
2023-01-04T01:05:49.806Z,6.80
2023-01-04T01:06:52.874Z,7.50
2023-01-04T01:07:55.734Z,7.05
2023-01-04T01:08:58.798Z,7.85
2023-01-04T01:10:01.321Z,7.25
2023-01-04T01:11:10.635Z,8.80
2023-01-04T01:12:13.234Z,8.15
2023-01-04T01:13:15.869Z,7.22
2023-01-04T01:14:24.253Z,8.15
2023-01-04T01:15:26.771Z,7.75
2023-01-04T01:16:53.942Z,7.22
2023-01-04T01:17:51.805Z,6.55
2023-01-04T01:18:55.075Z,7.75
2023-01-04T01:19:57.645Z,6.95
2023-01-04T01:21:00.472Z,6.93
2023-01-04T01:22:03.079Z,7.88
2023-01-04T01:23:05.771Z,7.80
2023-01-04T01:24:16.227Z,7.20
2023-01-04T01:25:18.759Z,7.00
2023-01-04T01:26:23.716Z,7.00
2023-01-04T01:27:26.269Z,7.15
2023-01-04T01:28:29.428Z,7.05
2023-01-04T01:29:32.001Z,6.90
2023-01-04T01:30:34.969Z,7.70
2023-01-04T01:31:37.529Z,7.40
2023-01-04T01:32:40.094Z,7.05
2023-01-04T01:33:45.694Z,7.68
2023-01-04T01:34:48.260Z,7.63
2023-01-04T01:35:50.870Z,8.38
2023-01-04T01:36:53.558Z,6.93
2023-01-04T01:37:56.101Z,6.13
2023-01-04T01:38:59.230Z,7.28
2023-01-04T01:40:01.776Z,7.72
2023-01-04T01:41:06.718Z,6.97
2023-01-04T01:42:20.738Z,7.50
2023-01-04T01:44:01.348Z,6.80
2023-01-04T01:45:26.150Z,6.95
2023-01-04T01:46:45.349Z,8.05
2023-01-04T01:47:50.185Z,7.57
2023-01-04T01:48:58.847Z,7.95
2023-01-04T01:50:02.520Z,8.10
2023-01-04T01:51:05.860Z,8.88
2023-01-04T01:52:18.788Z,10.70
2023-01-04T01:53:22.113Z,8.07
2023-01-04T01:54:31.244Z,9.98
2023-01-04T01:55:35.438Z,8.75
2023-01-04T01:56:39.836Z,7.95
2023-01-04T01:57:42.673Z,7.90
2023-01-04T01:58:51.836Z,9.57
2023-01-04T01:59:58.203Z,8.50
2023-01-04T02:01:01.745Z,9.07
2023-01-04T02:02:04.505Z,9.20
2023-01-04T02:03:19.403Z,9.50
2023-01-04T02:04:22.079Z,7.65
2023-01-04T02:05:25.208Z,8.95
2023-01-04T02:06:35.930Z,9.65
2023-01-04T02:07:38.692Z,7.95
2023-01-04T02:08:43.055Z,7.65
2023-01-04T02:09:47.511Z,8.25
2023-01-04T02:10:50.107Z,8.18
2023-01-04T02:11:52.791Z,8.55
2023-01-04T02:12:55.346Z,7.30
2023-01-04T02:14:18.009Z,7.70
2023-01-04T02:15:23.744Z,7.40
2023-01-04T02:16:53.733Z,8.43
2023-01-04T02:18:12.203Z,9.52
2023-01-04T02:20:01.409Z,8.75
2023-01-04T02:21:13.619Z,7.68
2023-01-04T02:22:49.575Z,8.00
2023-01-04T02:24:16.498Z,7.70
2023-01-04T02:25:38.131Z,8.73
2023-01-04T02:26:59.396Z,10.80
2023-01-04T02:28:30.441Z,8.95
2023-01-04T02:29:57.886Z,8.32
2023-01-04T02:31:06.664Z,10.05
2023-01-04T02:33:13.539Z,9.80
2023-01-04T02:34:34.795Z,7.90
2023-01-04T02:35:47.317Z,7.90
2023-01-04T02:37:35.664Z,7.82
2023-01-04T02:39:34.310Z,9.02
2023-01-04T02:41:08.601Z,8.85
2023-01-04T02:42:52.718Z,8.27
2023-01-04T02:44:52.599Z,7.78
2023-01-04T02:46:03.193Z,8.10
2023-01-04T02:47:16.396Z,7.68
2023-01-04T02:48:37.428Z,8.25
2023-01-04T02:50:04.194Z,9.55
2023-01-04T02:51:33.348Z,9.10
2023-01-04T02:52:35.976Z,9.73
2023-01-04T02:53:41.284Z,9.82
2023-01-04T02:54:45.908Z,9.68
2023-01-04T02:56:35.630Z,9.00
2023-01-04T02:58:21.071Z,8.77
2023-01-04T02:59:50.902Z,7.75
2023-01-04T03:01:46.041Z,7.80
2023-01-04T03:03:12.943Z,8.52
2023-01-04T03:05:21.408Z,8.30
2023-01-04T03:07:11.125Z,7.93
2023-01-04T03:08:22.436Z,7.90
2023-01-04T03:09:32.118Z,9.57
2023-01-04T03:11:00.697Z,9.23
2023-01-04T03:12:27.551Z,7.63
2023-01-04T03:13:38.333Z,8.40
2023-01-04T03:14:50.636Z,10.95
2023-01-04T03:16:09.624Z,10.65
2023-01-04T03:17:14.946Z,9.00
2023-01-04T03:18:32.123Z,11.05
2023-01-04T03:19:52.126Z,8.40
2023-01-04T03:20:57.721Z,10.38
2023-01-04T03:22:00.394Z,9.60
2023-01-04T03:23:29.042Z,8.68
2023-01-04T03:25:05.155Z,9.98
2023-01-04T03:26:50.543Z,9.88
2023-01-04T03:28:14.067Z,8.60
2023-01-04T03:29:53.608Z,10.88
2023-01-04T03:31:40.729Z,8.98
2023-01-04T03:33:17.265Z,9.05
2023-01-04T03:34:38.815Z,9.02
2023-01-04T03:35:53.152Z,9.30
2023-01-04T03:37:18.472Z,9.80
2023-01-04T03:38:55.224Z,10.07
2023-01-04T03:40:39.201Z,9.82
2023-01-04T03:42:23.882Z,9.90
2023-01-04T03:44:02.914Z,10.00
2023-01-04T03:45:41.485Z,9.48
2023-01-04T03:47:12.513Z,9.02
2023-01-04T03:48:32.373Z,8.75
2023-01-04T03:49:57.522Z,9.30
2023-01-04T03:51:18.092Z,10.13
2023-01-04T03:52:21.531Z,10.30
2023-01-04T03:53:25.755Z,8.25
2023-01-04T03:54:36.976Z,9.02
2023-01-04T03:55:41.760Z,9.93
2023-01-04T03:56:45.853Z,10.13
2023-01-04T03:57:49.189Z,10.48
2023-01-04T03:58:52.709Z,9.65
2023-01-04T04:00:13.185Z,9.40
2023-01-04T04:01:18.842Z,9.93
2023-01-04T04:02:30.121Z,10.80
2023-01-04T04:03:51.586Z,10.63
2023-01-04T04:05:12.981Z,9.13
2023-01-04T04:06:34.712Z,10.73
2023-01-04T04:07:56.039Z,12.00
2023-01-04T04:09:00.365Z,13.02
2023-01-04T04:10:02.939Z,9.68
2023-01-04T04:11:24.038Z,10.15
2023-01-04T04:12:26.595Z,9.00
2023-01-04T04:13:29.116Z,9.40
2023-01-04T04:14:31.774Z,9.48
2023-01-04T04:15:34.331Z,8.98
2023-01-04T04:16:37.004Z,10.63
2023-01-04T04:17:39.608Z,10.25
2023-01-04T04:18:42.370Z,11.35
2023-01-04T04:19:44.940Z,9.38
2023-01-04T04:20:47.543Z,12.15
2023-01-04T04:21:50.162Z,10.18
2023-01-04T04:22:53.720Z,10.25
2023-01-04T04:23:56.918Z,9.13
2023-01-04T04:24:59.531Z,10.00
2023-01-04T04:26:02.063Z,9.65
2023-01-04T04:27:04.768Z,9.35
2023-01-04T04:28:07.368Z,8.57
2023-01-04T04:29:10.049Z,10.02
2023-01-04T04:30:12.982Z,10.35
2023-01-04T04:31:15.724Z,8.73
2023-01-04T04:32:18.378Z,9.50
2023-01-04T04:33:20.910Z,8.18
2023-01-04T04:34:23.444Z,9.23
2023-01-04T04:35:26.088Z,11.02
2023-01-04T04:36:28.730Z,9.88
2023-01-04T04:37:32.201Z,8.93
2023-01-04T04:38:35.816Z,8.73
2023-01-04T04:39:38.421Z,8.43
2023-01-04T04:40:59.561Z,9.43
2023-01-04T04:42:02.172Z,9.15
2023-01-04T04:43:08.894Z,9.40
2023-01-04T04:44:16.203Z,9.10
2023-01-04T04:45:18.864Z,9.52
2023-01-04T04:46:21.588Z,9.80
2023-01-04T04:47:24.463Z,8.23
2023-01-04T04:48:27.287Z,9.38
2023-01-04T04:49:30.297Z,8.95
2023-01-04T04:50:32.888Z,8.35
2023-01-04T04:51:36.048Z,8.50
2023-01-04T04:52:41.293Z,8.70
2023-01-04T04:53:43.991Z,10.05
2023-01-04T04:54:46.547Z,9.80
2023-01-04T04:55:52.598Z,9.77
2023-01-04T04:56:55.139Z,8.38
2023-01-04T04:57:57.664Z,9.57
2023-01-04T04:59:00.202Z,8.13
2023-01-04T05:00:03.825Z,9.25
2023-01-04T05:01:06.992Z,9.20
2023-01-04T05:02:09.783Z,10.23
2023-01-04T05:03:12.592Z,8.48
2023-01-04T05:04:17.161Z,8.70
2023-01-04T05:05:19.911Z,8.52
2023-01-04T05:06:22.658Z,7.90
2023-01-04T05:07:25.266Z,8.80
2023-01-04T05:08:27.887Z,10.15
2023-01-04T05:09:30.424Z,8.55
2023-01-04T05:10:33.009Z,8.77
2023-01-04T05:11:53.997Z,7.75
2023-01-04T05:12:59.674Z,8.75
2023-01-04T05:14:02.184Z,7.68
2023-01-04T05:15:05.084Z,9.50
2023-01-04T05:16:10.213Z,8.88
2023-01-04T05:17:12.792Z,7.30
2023-01-04T05:18:18.255Z,8.60
2023-01-04T05:19:20.840Z,8.77
2023-01-04T05:20:23.509Z,8.18
2023-01-04T05:21:26.187Z,8.85
2023-01-04T05:22:28.813Z,8.70
2023-01-04T05:23:31.383Z,8.88
2023-01-04T05:24:33.889Z,8.88
2023-01-04T05:25:36.447Z,7.80
2023-01-04T05:26:39.916Z,7.00
2023-01-04T05:27:43.109Z,6.72
2023-01-04T05:28:51.553Z,9.93
2023-01-04T05:30:14.820Z,8.48
2023-01-04T05:31:17.434Z,7.00
2023-01-04T05:32:20.052Z,7.18
2023-01-04T05:33:27.045Z,9.13
2023-01-04T05:34:29.722Z,8.90
2023-01-04T05:35:32.347Z,9.43
2023-01-04T05:36:34.914Z,7.93
2023-01-04T05:37:37.446Z,8.38
2023-01-04T05:38:39.989Z,8.25
2023-01-04T05:39:42.545Z,7.45
2023-01-04T05:40:45.896Z,7.30
2023-01-04T05:42:06.812Z,7.57
2023-01-04T05:43:09.542Z,9.20
2023-01-04T05:44:12.063Z,7.50
2023-01-04T05:45:15.759Z,8.45
2023-01-04T05:46:18.322Z,7.78
2023-01-04T05:47:21.410Z,7.18
2023-01-04T05:48:24.990Z,8.05
2023-01-04T05:49:27.544Z,7.60
2023-01-04T05:50:30.073Z,7.07
2023-01-04T05:51:39.835Z,7.53
2023-01-04T05:52:42.480Z,6.95
2023-01-04T05:53:45.057Z,7.38
2023-01-04T05:54:47.879Z,7.10
2023-01-04T05:55:50.529Z,8.10
2023-01-04T05:56:53.120Z,7.32
2023-01-04T05:57:55.640Z,6.78
2023-01-04T05:58:58.264Z,7.28
2023-01-04T06:00:00.795Z,6.78
2023-01-04T06:01:03.357Z,9.35
2023-01-04T06:02:06.932Z,9.65
2023-01-04T06:03:09.722Z,6.80
2023-01-04T06:04:12.389Z,8.85
2023-01-04T06:05:15.225Z,7.07
2023-01-04T06:06:17.767Z,7.97
2023-01-04T06:07:20.536Z,6.38
2023-01-04T06:08:23.128Z,6.82
2023-01-04T06:09:27.401Z,6.22
2023-01-04T06:10:29.952Z,6.50
2023-01-04T06:11:32.593Z,6.20
2023-01-04T06:12:35.195Z,6.68
2023-01-04T06:13:37.715Z,5.85
2023-01-04T06:14:40.445Z,8.00
2023-01-04T06:15:45.134Z,7.47
2023-01-04T06:16:47.736Z,6.57
2023-01-04T06:17:50.483Z,6.70
2023-01-04T06:18:53.232Z,5.50
2023-01-04T06:19:55.835Z,5.80
2023-01-04T06:20:58.348Z,6.30
2023-01-04T06:22:01.234Z,7.05
2023-01-04T06:23:03.787Z,6.80
2023-01-04T06:24:06.460Z,6.55
2023-01-04T06:25:10.087Z,5.50
2023-01-04T06:26:12.960Z,4.60
2023-01-04T06:27:15.536Z,5.45
2023-01-04T06:28:18.083Z,7.07
2023-01-04T06:29:20.749Z,5.43
2023-01-04T06:30:23.291Z,5.68
2023-01-04T06:31:25.844Z,5.30
2023-01-04T06:32:28.576Z,6.03
2023-01-04T06:33:31.396Z,5.75
2023-01-04T06:34:33.995Z,5.72
2023-01-04T06:35:36.604Z,5.35
2023-01-04T06:36:39.178Z,5.00
2023-01-04T06:37:41.839Z,5.38
2023-01-04T06:38:44.432Z,5.18
2023-01-04T06:39:47.124Z,4.80
2023-01-04T06:40:49.810Z,3.85
2023-01-04T06:41:52.429Z,4.78
2023-01-04T06:42:54.943Z,4.93
2023-01-04T06:43:57.471Z,5.40
2023-01-04T06:45:00.156Z,4.68
2023-01-04T06:46:03.702Z,4.18
2023-01-04T06:47:06.431Z,4.65
2023-01-04T06:48:09.536Z,4.13
2023-01-04T06:49:12.158Z,4.80
2023-01-04T06:50:14.732Z,4.55
2023-01-04T06:51:17.275Z,5.47
2023-01-04T06:52:21.116Z,3.63
2023-01-04T06:53:23.924Z,4.68
2023-01-04T06:54:27.084Z,4.15
2023-01-04T06:55:29.879Z,4.13
2023-01-04T06:56:33.639Z,4.55
2023-01-04T06:57:36.271Z,4.82
2023-01-04T06:58:38.936Z,3.75
2023-01-04T06:59:41.512Z,4.00
2023-01-04T07:00:44.179Z,4.22
2023-01-04T07:01:46.935Z,4.03
2023-01-04T07:03:14.435Z,4.20
2023-01-04T07:04:12.204Z,4.45
2023-01-04T07:05:14.876Z,4.70
2023-01-04T07:06:17.673Z,4.38
2023-01-04T07:07:20.327Z,3.72
2023-01-04T07:08:22.941Z,3.85
2023-01-04T07:09:25.465Z,4.28
2023-01-04T07:10:28.377Z,7.97
2023-01-04T07:11:30.923Z,3.95
2023-01-04T07:12:34.254Z,4.40
2023-01-04T07:13:36.819Z,4.82
2023-01-04T07:14:39.429Z,4.78
2023-01-04T07:15:42.280Z,3.78
2023-01-04T07:16:44.918Z,4.57
2023-01-04T07:17:49.076Z,4.05
2023-01-04T07:18:51.706Z,4.05
2023-01-04T07:19:54.370Z,4.30
2023-01-04T07:20:56.960Z,4.22
2023-01-04T07:22:00.128Z,3.90
2023-01-04T07:23:02.670Z,4.20
2023-01-04T07:24:05.272Z,3.53
2023-01-04T07:25:08.619Z,4.32
2023-01-04T07:26:11.159Z,3.55
2023-01-04T07:27:13.688Z,4.35
2023-01-04T07:28:36.250Z,3.92
2023-01-04T07:29:43.813Z,3.90
2023-01-04T07:30:46.475Z,4.20
2023-01-04T07:31:51.766Z,4.20
2023-01-04T07:32:55.954Z,3.30
2023-01-04T07:33:58.536Z,4.28
2023-01-04T07:35:01.222Z,3.72
2023-01-04T07:36:06.545Z,3.83
2023-01-04T07:37:09.459Z,3.72
2023-01-04T07:38:12.001Z,3.95
2023-01-04T07:39:15.555Z,3.88
2023-01-04T07:40:18.326Z,4.45
2023-01-04T07:41:20.848Z,4.38
2023-01-04T07:42:23.671Z,3.80
2023-01-04T07:43:28.570Z,4.90
2023-01-04T07:44:31.366Z,3.55
2023-01-04T07:45:36.096Z,3.90
2023-01-04T07:46:39.504Z,3.85
2023-01-04T07:47:42.155Z,3.85
2023-01-04T07:48:44.741Z,3.33
2023-01-04T07:49:48.870Z,4.53
2023-01-04T07:50:51.598Z,3.88
2023-01-04T07:51:54.191Z,7.75
2023-01-04T07:52:57.242Z,3.90
2023-01-04T07:54:00.179Z,4.10
2023-01-04T07:55:02.738Z,4.25
2023-01-04T07:56:06.153Z,3.60
2023-01-04T07:57:08.714Z,4.32
2023-01-04T07:58:11.253Z,4.47
2023-01-04T07:59:16.747Z,4.13
2023-01-04T08:00:19.818Z,4.85
2023-01-04T08:01:23.162Z,4.60
2023-01-04T08:02:26.171Z,4.47
2023-01-04T08:03:28.822Z,4.43
2023-01-04T08:04:35.173Z,3.92
2023-01-04T08:05:38.285Z,3.85
2023-01-04T08:06:42.913Z,5.03
2023-01-04T08:07:45.482Z,4.32
2023-01-04T08:08:48.577Z,4.72
2023-01-04T08:09:51.160Z,4.53
2023-01-04T08:10:53.749Z,4.10
2023-01-04T08:11:56.341Z,5.80
2023-01-04T08:13:00.218Z,3.95
2023-01-04T08:14:03.122Z,4.78
2023-01-04T08:15:06.626Z,4.90
2023-01-04T08:16:19.510Z,4.53
2023-01-04T08:17:22.208Z,4.85
2023-01-04T08:18:25.162Z,4.90
2023-01-04T08:19:27.933Z,4.43
2023-01-04T08:20:30.487Z,4.75
2023-01-04T08:21:35.840Z,4.60
2023-01-04T08:22:38.400Z,7.78
2023-01-04T08:23:40.912Z,4.70
2023-01-04T08:24:43.562Z,5.10
2023-01-04T08:25:46.166Z,8.77
2023-01-04T08:26:48.970Z,5.35
2023-01-04T08:27:51.650Z,5.38
2023-01-04T08:28:54.973Z,5.47
2023-01-04T08:29:57.490Z,5.18
2023-01-04T08:31:06.893Z,5.15
2023-01-04T08:32:09.493Z,5.05
2023-01-04T08:33:16.050Z,4.80
2023-01-04T08:34:18.620Z,5.63
2023-01-04T08:35:21.842Z,6.85
2023-01-04T08:36:30.423Z,5.95
2023-01-04T08:37:35.035Z,4.90
2023-01-04T08:40:00.256Z,5.60
2023-01-04T08:41:16.860Z,6.18
2023-01-04T08:42:30.999Z,5.70
2023-01-04T08:43:36.077Z,5.50
2023-01-04T08:44:38.897Z,5.97
2023-01-04T08:45:42.652Z,6.50
2023-01-04T08:46:45.461Z,5.85
2023-01-04T08:47:48.123Z,6.03
2023-01-04T08:48:52.532Z,5.45
2023-01-04T08:49:55.277Z,5.85
2023-01-04T08:51:08.093Z,5.35
2023-01-04T08:52:11.795Z,5.80
2023-01-04T08:53:14.506Z,5.38
2023-01-04T08:54:17.623Z,6.72
2023-01-04T08:55:23.467Z,5.55
2023-01-04T08:56:26.545Z,6.72
2023-01-04T08:57:29.053Z,7.97
2023-01-04T08:58:35.516Z,7.65
2023-01-04T08:59:38.285Z,5.70
2023-01-04T09:00:41.152Z,7.50
2023-01-04T09:01:43.923Z,7.03
2023-01-04T09:02:46.669Z,6.20
2023-01-04T09:03:49.326Z,6.30
2023-01-04T09:04:52.432Z,7.07
2023-01-04T09:06:01.555Z,6.70
2023-01-04T09:07:04.142Z,7.40
2023-01-04T09:08:07.090Z,6.88
2023-01-04T09:09:09.761Z,6.35
2023-01-04T09:10:12.427Z,8.63
2023-01-04T09:11:18.882Z,7.82
2023-01-04T09:12:21.665Z,5.90
2023-01-04T09:13:24.197Z,5.55
2023-01-04T09:14:26.929Z,6.18
2023-01-04T09:15:29.691Z,6.80
2023-01-04T09:16:32.342Z,7.65
2023-01-04T09:17:34.967Z,6.07
2023-01-04T09:18:37.684Z,7.50
2023-01-04T09:19:40.359Z,6.78
2023-01-04T09:20:43.020Z,6.70
2023-01-04T09:21:47.087Z,6.25
2023-01-04T09:22:49.690Z,7.00
2023-01-04T09:23:52.235Z,7.32
2023-01-04T09:24:55.360Z,6.05
2023-01-04T09:25:58.005Z,5.50
2023-01-04T09:27:00.528Z,5.80
2023-01-04T09:28:03.043Z,5.90
2023-01-04T09:29:06.793Z,6.95
2023-01-04T09:30:10.380Z,5.97
2023-01-04T09:31:17.391Z,6.78
2023-01-04T09:32:20.052Z,8.70
2023-01-04T09:33:35.778Z,7.85
2023-01-04T09:34:45.709Z,5.95
2023-01-04T09:35:48.310Z,6.13
2023-01-04T09:36:51.850Z,5.57
2023-01-04T09:37:56.122Z,5.80
2023-01-04T09:38:58.704Z,7.03
2023-01-04T09:40:01.394Z,6.03
2023-01-04T09:41:30.598Z,6.07
2023-01-04T09:42:38.920Z,8.32
2023-01-04T09:43:52.343Z,6.07
2023-01-04T09:46:43.584Z,6.00
2023-01-04T09:47:59.147Z,6.00
2023-01-04T09:49:33.421Z,8.50
2023-01-04T09:50:55.477Z,6.10
2023-01-04T09:52:01.278Z,7.20
2023-01-04T09:53:23.741Z,6.05
2023-01-04T09:54:43.857Z,7.47
2023-01-04T09:55:51.025Z,6.63
2023-01-04T09:57:00.866Z,6.90
2023-01-04T09:58:13.539Z,7.07
2023-01-04T09:59:19.632Z,10.50
2023-01-04T10:00:31.983Z,11.43
2023-01-04T10:01:46.090Z,10.45
2023-01-04T10:02:59.055Z,9.38
2023-01-04T10:04:24.356Z,6.80
2023-01-04T10:05:31.003Z,10.45
2023-01-04T10:06:34.851Z,8.82
2023-01-04T10:07:37.531Z,12.30
2023-01-04T11:25:40.633Z,17.05
2023-01-04T11:26:47.240Z,14.75
2023-01-04T11:28:18.191Z,15.68
2023-01-04T11:29:35.673Z,16.02
2023-01-04T11:30:57.741Z,13.95
2023-01-04T11:32:07.254Z,8.65
2023-01-04T11:33:14.821Z,8.32
2023-01-04T11:34:17.162Z,11.88
2023-01-04T11:35:44.984Z,12.48
2023-01-04T11:36:47.917Z,9.60
2023-01-04T11:37:50.235Z,10.63
2023-01-04T11:38:56.510Z,8.10
2023-01-04T11:40:18.340Z,7.68
2023-01-04T11:41:20.775Z,8.25
2023-01-04T11:42:23.224Z,6.05
2023-01-04T11:43:33.801Z,4.65
2023-01-04T11:44:36.696Z,4.30
2023-01-04T11:45:39.192Z,5.00
2023-01-04T11:46:42.390Z,4.65
2023-01-04T11:47:56.533Z,4.95
2023-01-04T11:48:59.550Z,5.25
2023-01-04T11:50:01.851Z,4.82
2023-01-04T11:51:05.460Z,4.78
2023-01-04T11:52:27.735Z,4.07
2023-01-04T11:53:35.842Z,4.55
2023-01-04T11:54:38.211Z,3.65
2023-01-04T11:55:40.488Z,4.10
2023-01-04T11:57:17.572Z,3.60
2023-01-04T11:58:20.998Z,3.22
2023-01-04T11:59:25.695Z,3.20
2023-01-04T12:00:28.368Z,3.17
2023-01-04T12:01:33.080Z,3.60
2023-01-04T12:03:00.188Z,2.80
2023-01-04T12:03:59.139Z,4.45
2023-01-04T12:05:01.467Z,3.75
2023-01-04T12:06:11.776Z,3.22
2023-01-04T12:07:25.661Z,3.08
2023-01-04T12:08:31.501Z,3.90
2023-01-04T12:09:33.819Z,3.30
2023-01-04T12:10:36.755Z,3.20
2023-01-04T12:11:42.434Z,3.55
2023-01-04T12:12:44.764Z,2.92
2023-01-04T12:13:47.220Z,3.95
2023-01-04T12:14:50.238Z,3.22
2023-01-04T12:16:04.018Z,4.22
2023-01-04T12:17:44.624Z,3.20
2023-01-04T12:18:47.280Z,3.28
2023-01-04T12:19:53.775Z,2.90
2023-01-04T12:20:57.633Z,2.90
2023-01-04T12:22:02.896Z,3.22
2023-01-04T12:23:05.752Z,3.10
2023-01-04T12:24:08.441Z,3.13
2023-01-04T12:25:39.235Z,3.22
2023-01-04T12:26:42.641Z,3.35
2023-01-04T12:27:49.149Z,3.70
2023-01-04T12:29:23.510Z,4.78
2023-01-04T12:30:44.581Z,3.90
2023-01-04T12:31:46.821Z,4.00
2023-01-04T12:32:49.391Z,3.72
2023-01-04T12:33:52.640Z,4.45
2023-01-04T12:34:55.849Z,3.50
2023-01-04T12:36:01.455Z,3.97
2023-01-04T12:37:06.211Z,4.20
2023-01-04T12:38:10.059Z,4.13
2023-01-04T12:39:15.358Z,3.63
2023-01-04T12:40:45.470Z,3.78
2023-01-04T12:42:03.742Z,3.42
2023-01-04T12:43:23.710Z,4.03
2023-01-04T12:44:43.141Z,3.63
2023-01-04T12:45:48.553Z,3.42
2023-01-04T12:47:12.227Z,3.22
2023-01-04T12:48:48.151Z,3.47
2023-01-04T12:50:03.033Z,3.25
2023-01-04T12:51:34.207Z,3.75
2023-01-04T12:53:19.882Z,3.55
2023-01-04T12:54:24.703Z,4.35
2023-01-04T12:55:33.069Z,3.50
2023-01-04T12:57:10.498Z,3.08
2023-01-04T12:59:07.019Z,3.33
2023-01-04T13:00:09.983Z,3.85
2023-01-04T13:01:23.915Z,3.67
2023-01-04T13:02:44.015Z,4.32
2023-01-04T13:03:48.882Z,3.92
2023-01-04T13:05:43.488Z,3.45
2023-01-04T13:06:24.011Z,3.70
2023-01-04T13:07:31.294Z,4.20
2023-01-04T13:08:41.456Z,7.13
2023-01-04T13:09:54.041Z,3.80
2023-01-04T13:10:57.466Z,3.85
2023-01-04T13:12:29.189Z,4.05
2023-01-04T13:14:02.682Z,3.45
2023-01-04T13:15:19.478Z,3.50
2023-01-04T13:16:39.974Z,5.50
2023-01-04T13:17:43.917Z,3.92
2023-01-04T13:18:52.474Z,4.00
2023-01-04T13:19:55.431Z,5.32
2023-01-04T13:20:57.998Z,4.10
2023-01-04T13:22:00.428Z,3.10
2023-01-04T13:23:05.832Z,4.07
2023-01-04T13:24:20.610Z,4.15
2023-01-04T13:25:26.636Z,4.78
2023-01-04T13:26:40.940Z,5.35
2023-01-04T13:28:00.788Z,4.18
2023-01-04T13:29:33.890Z,4.82
2023-01-04T13:30:39.194Z,4.50
2023-01-04T13:31:55.013Z,4.55
2023-01-04T13:33:24.842Z,4.93
2023-01-04T13:35:00.816Z,4.47
2023-01-04T13:36:10.601Z,4.90
2023-01-04T13:37:15.493Z,4.55
2023-01-04T13:38:18.087Z,5.20
2023-01-04T13:39:20.567Z,4.90
2023-01-04T13:40:26.767Z,5.18
2023-01-04T13:41:29.667Z,4.30
2023-01-04T13:42:35.869Z,4.63
2023-01-04T13:43:46.706Z,4.55
2023-01-04T13:46:25.515Z,5.22
2023-01-04T13:47:30.010Z,4.53
2023-01-04T13:48:36.680Z,4.65
2023-01-04T13:49:40.995Z,4.97
2023-01-04T13:50:49.697Z,4.38
2023-01-04T13:52:01.166Z,4.90
2023-01-04T13:53:23.066Z,4.60
2023-01-04T13:54:31.604Z,4.78
2023-01-04T13:55:39.108Z,4.65
2023-01-04T13:56:41.419Z,4.95
2023-01-04T13:57:57.638Z,4.90
2023-01-04T13:59:00.321Z,4.43
2023-01-04T14:00:07.268Z,4.38
2023-01-04T14:01:26.593Z,5.40
2023-01-04T14:02:29.625Z,4.75
2023-01-04T14:03:37.123Z,5.20
2023-01-04T14:04:43.304Z,4.82
2023-01-04T14:05:50.777Z,4.90
2023-01-04T14:06:57.716Z,4.65
2023-01-04T14:08:00.554Z,4.85
2023-01-04T14:09:13.378Z,4.75
2023-01-04T14:10:19.217Z,4.63
2023-01-04T14:11:46.892Z,4.95
2023-01-04T14:12:49.208Z,4.40
2023-01-04T14:13:51.516Z,4.32
2023-01-04T14:15:04.938Z,4.70
2023-01-04T14:16:13.974Z,4.80
2023-01-04T14:17:17.922Z,4.43
2023-01-04T14:18:29.029Z,5.28
2023-01-04T14:19:56.878Z,4.82
2023-01-04T14:20:59.184Z,5.03
2023-01-04T14:22:01.605Z,4.90
2023-01-04T14:23:05.124Z,4.80
2023-01-04T14:25:56.848Z,5.65
2023-01-04T14:26:59.472Z,4.40
2023-01-04T14:28:30.414Z,5.88
2023-01-04T14:29:33.481Z,4.93
2023-01-04T14:30:36.710Z,5.00
2023-01-04T14:31:39.155Z,5.10
2023-01-04T14:32:41.928Z,5.50
2023-01-04T14:33:46.470Z,5.25
2023-01-04T14:34:48.816Z,7.57
2023-01-04T14:36:09.727Z,6.25
2023-01-04T14:37:12.368Z,5.70
2023-01-04T14:38:17.765Z,5.38
2023-01-04T14:39:28.191Z,5.55
2023-01-04T14:40:31.784Z,4.60
2023-01-04T14:41:50.013Z,4.47
2023-01-04T14:42:52.722Z,4.53
2023-01-04T14:44:00.665Z,5.20
2023-01-04T14:45:08.643Z,5.40
2023-01-04T14:46:10.924Z,5.10
2023-01-04T14:47:13.930Z,4.30
2023-01-04T14:48:21.948Z,5.07
2023-01-04T14:49:29.439Z,4.38
2023-01-04T14:50:31.855Z,4.30
2023-01-04T14:51:34.335Z,5.03
2023-01-04T14:52:36.639Z,5.70
2023-01-04T14:53:38.884Z,4.45
2023-01-04T14:54:41.254Z,4.47
2023-01-04T14:55:43.602Z,5.70
2023-01-04T14:56:45.926Z,6.32
2023-01-04T14:57:48.227Z,12.82
2023-01-04T14:58:50.597Z,10.93
2023-01-04T14:59:52.882Z,6.63
2023-01-04T15:00:55.169Z,6.40
2023-01-04T15:01:58.274Z,5.68
2023-01-04T15:03:00.856Z,5.10
2023-01-04T15:04:04.862Z,4.70
2023-01-04T15:05:08.525Z,4.40
2023-01-04T15:06:11.381Z,5.20
2023-01-04T15:07:36.170Z,5.70
2023-01-04T15:08:38.498Z,4.20
2023-01-04T15:09:40.879Z,5.90
2023-01-04T15:10:43.169Z,5.05
2023-01-04T15:11:45.425Z,4.55
2023-01-04T15:12:47.680Z,4.82
2023-01-04T15:13:50.087Z,5.38
2023-01-04T15:14:52.352Z,4.80
2023-01-04T15:15:54.738Z,4.88
2023-01-04T15:16:57.142Z,5.70
2023-01-04T15:18:00.098Z,5.28
2023-01-04T15:19:02.365Z,4.60
2023-01-04T15:20:05.274Z,4.72
2023-01-04T15:21:08.152Z,4.70
2023-01-04T15:22:10.484Z,4.40
2023-01-04T15:23:12.815Z,3.55
2023-01-04T15:24:15.138Z,4.90
2023-01-04T15:25:17.472Z,4.05
2023-01-04T15:26:19.778Z,3.90
2023-01-04T15:27:25.670Z,4.60
2023-01-04T15:28:33.148Z,4.38
2023-01-04T15:29:35.432Z,5.30
2023-01-04T15:30:42.486Z,4.47
2023-01-04T15:31:44.932Z,4.60
2023-01-04T15:32:47.933Z,4.97
2023-01-04T15:33:50.586Z,4.50
2023-01-04T15:34:52.937Z,4.57
2023-01-04T15:36:03.297Z,4.72
2023-01-04T15:37:05.589Z,4.20
2023-01-04T15:38:12.930Z,5.03
2023-01-04T15:39:18.539Z,3.80
2023-01-04T15:40:21.048Z,4.28
2023-01-04T15:41:42.201Z,3.80
2023-01-04T15:43:00.094Z,4.85
2023-01-04T15:44:03.794Z,4.82
2023-01-04T15:45:06.780Z,4.38
2023-01-04T15:46:09.480Z,6.57
2023-01-04T15:47:11.941Z,9.07
2023-01-04T15:48:14.282Z,10.00
2023-01-04T15:49:17.779Z,11.10
2023-01-04T15:50:20.738Z,9.52
2023-01-04T15:51:23.340Z,8.68
2023-01-04T15:52:25.637Z,6.90
2023-01-04T15:53:27.898Z,7.53
2023-01-04T15:54:30.253Z,6.32
2023-01-04T15:55:36.290Z,7.20
2023-01-04T15:56:38.936Z,5.72
2023-01-04T15:57:43.883Z,5.15
2023-01-04T15:58:47.421Z,5.40
2023-01-04T15:59:49.724Z,4.95
2023-01-04T16:00:58.421Z,4.55
2023-01-04T16:02:02.216Z,4.53
2023-01-04T16:03:05.492Z,5.57
2023-01-04T16:04:07.946Z,5.88
2023-01-04T16:05:10.292Z,5.60
2023-01-04T16:06:15.158Z,6.25
2023-01-04T16:07:18.492Z,5.95
2023-01-04T16:08:20.845Z,4.43
2023-01-04T16:09:23.146Z,4.50
2023-01-04T16:10:26.200Z,4.00
2023-01-04T16:11:28.416Z,4.00
2023-01-04T16:12:43.077Z,4.18
2023-01-04T16:13:47.527Z,4.22
2023-01-04T16:14:49.856Z,3.80
2023-01-04T16:15:52.157Z,3.80
2023-01-04T16:16:55.959Z,3.90
2023-01-04T16:17:58.241Z,4.07
2023-01-04T16:19:02.019Z,2.95
2023-01-04T16:20:05.503Z,3.30
2023-01-04T16:21:09.177Z,3.20
2023-01-04T16:22:11.580Z,3.35
2023-01-04T16:23:13.917Z,4.05
2023-01-04T16:24:44.877Z,3.50
2023-01-04T16:25:38.373Z,3.15